createdAt,value
2022-10-17T00:02:48.549Z,0
2022-10-17T00:13:03.992Z,0
2022-10-17T00:18:11.669Z,0
2022-10-17T00:23:19.396Z,0
2022-10-17T00:28:27.722Z,0
2022-10-17T00:33:34.634Z,0
2022-10-17T00:38:41.950Z,0
2022-10-17T00:43:49.309Z,0
2022-10-17T00:48:56.675Z,0
2022-10-17T00:54:03.986Z,0
2022-10-17T00:59:11.371Z,0
2022-10-17T01:04:18.786Z,0
2022-10-17T01:09:26.085Z,0
2022-10-17T01:14:33.464Z,0
2022-10-17T01:19:40.823Z,0
2022-10-17T01:24:48.188Z,0
2022-10-17T01:29:55.554Z,0
2022-10-17T01:35:02.949Z,0
2022-10-17T01:40:10.444Z,0
2022-10-17T01:45:17.757Z,0
2022-10-17T01:50:25.110Z,0
2022-10-17T01:55:32.471Z,0
2022-10-17T02:00:39.852Z,0
2022-10-17T02:05:47.238Z,0
2022-10-17T02:10:54.620Z,0
2022-10-17T02:16:01.995Z,0
2022-10-17T02:21:09.339Z,0
2022-10-17T02:26:16.747Z,0
2022-10-17T02:31:24.041Z,0
2022-10-17T02:36:31.363Z,0
2022-10-17T02:41:38.779Z,0
2022-10-17T02:46:46.144Z,0
2022-10-17T02:51:53.501Z,0
2022-10-17T02:57:00.886Z,0
2022-10-17T03:02:08.265Z,0
2022-10-17T03:07:15.556Z,0
2022-10-17T03:12:22.926Z,0
2022-10-17T03:17:30.290Z,0
2022-10-17T03:22:37.634Z,0
2022-10-17T03:27:44.972Z,0
2022-10-17T03:32:52.287Z,0
2022-10-17T03:37:59.629Z,0
2022-10-17T03:43:06.926Z,0
2022-10-17T03:48:14.534Z,0
2022-10-17T03:53:22.086Z,0
2022-10-17T03:58:29.694Z,0
2022-10-17T04:03:37.204Z,0
2022-10-17T04:08:44.790Z,0
2022-10-17T04:13:52.313Z,0
2022-10-17T04:18:59.882Z,0
2022-10-17T04:24:07.493Z,0
2022-10-17T04:29:15.058Z,0
2022-10-17T04:34:22.605Z,0
2022-10-17T04:39:30.155Z,0
2022-10-17T04:44:37.741Z,0
2022-10-17T04:49:45.243Z,0
2022-10-17T04:54:53.402Z,0
2022-10-17T05:00:00.088Z,1
2022-10-17T05:05:07.147Z,2
2022-10-17T05:10:14.185Z,1
2022-10-17T05:15:21.299Z,1
2022-10-17T05:20:28.391Z,3
2022-10-17T05:25:35.520Z,9
2022-10-17T05:30:42.616Z,21
2022-10-17T05:35:49.667Z,76
2022-10-17T05:40:56.738Z,132
2022-10-17T05:46:03.840Z,202
2022-10-17T05:51:11.078Z,257
2022-10-17T05:56:18.017Z,365
2022-10-17T06:01:25.194Z,477
2022-10-17T06:06:32.177Z,650
2022-10-17T06:11:39.283Z,804
2022-10-17T06:16:46.434Z,1202
2022-10-17T06:21:53.523Z,1691
2022-10-17T06:27:00.516Z,2005
2022-10-17T06:37:14.678Z,2230
2022-10-17T06:42:21.670Z,2503
2022-10-17T06:47:28.704Z,3124
2022-10-17T06:52:35.724Z,3005
2022-10-17T06:57:42.721Z,3263
2022-10-17T07:02:49.770Z,3276
2022-10-17T07:07:56.856Z,3197
2022-10-17T07:13:04.007Z,3375
2022-10-17T07:18:11.185Z,3917
2022-10-17T07:23:18.248Z,3352
2022-10-17T07:28:25.295Z,4189
2022-10-17T07:33:32.343Z,3911
2022-10-17T07:38:39.407Z,5714
2022-10-17T07:43:46.404Z,5156
2022-10-17T07:48:53.412Z,4168
2022-10-17T07:54:00.363Z,6206
2022-10-17T07:59:07.376Z,3489
2022-10-17T08:04:14.303Z,4036
2022-10-17T08:09:21.259Z,4454
2022-10-17T08:14:28.461Z,4513
2022-10-17T08:19:35.620Z,5505
2022-10-17T08:24:42.830Z,4715
2022-10-17T08:29:49.978Z,5005
2022-10-17T08:34:57.076Z,5431
2022-10-17T08:40:04.269Z,4138
2022-10-17T08:45:11.345Z,4868
2022-10-17T08:50:18.442Z,4520
2022-10-17T08:55:25.506Z,4799
2022-10-17T09:00:32.610Z,5023
2022-10-17T09:05:39.773Z,5121
2022-10-17T09:10:46.846Z,5360
2022-10-17T09:15:53.859Z,4774
2022-10-17T09:21:01.613Z,5583
2022-10-17T09:26:07.874Z,5709
2022-10-17T09:31:14.491Z,6129
2022-10-17T09:36:21.181Z,5895
2022-10-17T09:41:27.734Z,7888
2022-10-17T09:46:34.383Z,6005
2022-10-17T09:51:41.105Z,7839
2022-10-17T09:56:47.730Z,7089
2022-10-17T10:01:54.355Z,6596
2022-10-17T10:07:00.957Z,6003
2022-10-17T10:12:07.529Z,5997
2022-10-17T10:17:14.114Z,8790
2022-10-17T10:22:20.672Z,3611
2022-10-17T10:27:27.147Z,7368
2022-10-17T10:32:33.815Z,6330
2022-10-17T10:37:40.401Z,6426
2022-10-17T10:42:46.949Z,6372
2022-10-17T10:47:53.485Z,6040
2022-10-17T10:53:00.038Z,6755
2022-10-17T10:58:06.763Z,6697
2022-10-17T11:03:13.400Z,6404
2022-10-17T11:08:19.892Z,6367
2022-10-17T11:13:26.486Z,7201
2022-10-17T11:18:33.032Z,5679
2022-10-17T11:23:39.572Z,6089
2022-10-17T11:28:46.069Z,5801
2022-10-17T11:33:52.800Z,6866
2022-10-17T11:38:59.471Z,3639
2022-10-17T11:44:06.161Z,5601
2022-10-17T11:49:12.889Z,5409
2022-10-17T11:54:19.556Z,10225
2022-10-17T12:04:32.928Z,4153
2022-10-17T12:09:39.562Z,6877
2022-10-17T12:14:46.148Z,4855
2022-10-17T12:19:52.583Z,7216
2022-10-17T12:24:59.338Z,6377
2022-10-17T12:30:05.936Z,7107
2022-10-17T12:35:12.491Z,6873
2022-10-17T12:40:19.287Z,6342
2022-10-17T12:45:26.053Z,7930
2022-10-17T12:50:32.702Z,6262
2022-10-17T12:55:39.644Z,4151
2022-10-17T13:00:46.481Z,4730
2022-10-17T13:05:53.273Z,6027
2022-10-17T13:11:00.130Z,9534
2022-10-17T13:16:06.753Z,6184
2022-10-17T13:21:13.683Z,6462
2022-10-17T13:26:20.380Z,2741
2022-10-17T13:31:27.315Z,6843
2022-10-17T13:36:34.110Z,5023
2022-10-17T13:41:40.846Z,5932
2022-10-17T13:46:48.282Z,6572
2022-10-17T13:51:55.637Z,5098
2022-10-17T13:57:02.946Z,8682
2022-10-17T14:02:10.131Z,7157
2022-10-17T14:07:17.613Z,5776
2022-10-17T14:12:24.931Z,5515
2022-10-17T14:17:32.377Z,3193
2022-10-17T14:22:39.630Z,4645
2022-10-17T14:27:47.132Z,4681
2022-10-17T14:32:54.536Z,4650
2022-10-17T14:38:02.003Z,4726
2022-10-17T14:43:09.465Z,5198
2022-10-17T14:48:16.920Z,5011
2022-10-17T14:53:25.406Z,4643
2022-10-17T14:58:31.991Z,3952
2022-10-17T15:03:38.508Z,4137
2022-10-17T15:08:44.961Z,4266
2022-10-17T15:13:51.460Z,3628
2022-10-17T15:18:57.995Z,3459
2022-10-17T15:24:04.550Z,2865
2022-10-17T15:29:11.117Z,2335
2022-10-17T15:34:17.745Z,1963
2022-10-17T15:39:24.355Z,1733
2022-10-17T15:44:30.942Z,1515
2022-10-17T15:49:37.622Z,1333
2022-10-17T15:54:44.234Z,1190
2022-10-17T15:59:50.936Z,1067
2022-10-17T16:04:57.618Z,737
2022-10-17T16:10:04.304Z,401
2022-10-17T16:15:11.034Z,230
2022-10-17T16:25:24.622Z,95
2022-10-17T16:30:31.398Z,51
2022-10-17T16:35:38.211Z,20
2022-10-17T16:40:45.063Z,8
2022-10-17T16:45:51.852Z,4
2022-10-17T16:50:58.785Z,0
2022-10-17T16:56:05.702Z,0
2022-10-17T17:01:12.636Z,0
2022-10-17T17:06:19.736Z,0
2022-10-17T17:11:26.820Z,0
2022-10-17T17:16:33.915Z,0
2022-10-17T17:21:41.027Z,0
2022-10-17T17:26:48.142Z,0
2022-10-17T17:31:55.282Z,0
2022-10-17T17:37:02.470Z,0
2022-10-17T17:42:09.635Z,0
2022-10-17T17:47:16.800Z,0
2022-10-17T17:52:24.074Z,0
2022-10-17T17:57:31.200Z,0
2022-10-17T18:02:38.414Z,0
2022-10-17T18:07:45.668Z,0
2022-10-17T18:12:53.163Z,0
2022-10-17T18:18:00.649Z,0
2022-10-17T18:23:08.154Z,0
2022-10-17T18:33:23.149Z,0
2022-10-17T18:38:30.678Z,0
2022-10-17T18:43:38.159Z,0
2022-10-17T18:48:45.670Z,0
2022-10-17T18:53:53.193Z,0
2022-10-17T18:59:00.710Z,0
2022-10-17T19:04:08.221Z,0
2022-10-17T19:09:15.707Z,0
2022-10-17T19:14:23.223Z,0
2022-10-17T19:19:31.374Z,0
2022-10-17T19:24:38.138Z,0
2022-10-17T19:29:45.292Z,0
2022-10-17T19:34:52.477Z,0
2022-10-17T19:39:59.681Z,0
2022-10-17T19:45:06.883Z,0
2022-10-17T19:50:14.077Z,0
2022-10-17T19:55:21.272Z,0
2022-10-17T20:00:28.458Z,0
2022-10-17T20:05:35.621Z,0
2022-10-17T20:10:42.829Z,0
2022-10-17T20:15:50.051Z,0
2022-10-17T20:20:57.224Z,0
2022-10-17T20:26:04.410Z,0
2022-10-17T20:31:11.636Z,0
2022-10-17T20:36:18.861Z,0
2022-10-17T20:41:26.087Z,0
2022-10-17T20:46:33.305Z,0
2022-10-17T20:51:40.548Z,0
2022-10-17T20:56:47.822Z,0
2022-10-17T21:01:55.074Z,0
2022-10-17T21:07:02.307Z,0
2022-10-17T21:12:09.610Z,0
2022-10-17T21:17:16.823Z,0
2022-10-17T21:22:24.078Z,0
2022-10-17T21:27:31.330Z,0
2022-10-17T21:32:38.683Z,0
2022-10-17T21:37:46.068Z,0
2022-10-17T21:42:53.415Z,0
2022-10-17T21:48:00.782Z,0
2022-10-17T21:53:08.143Z,0
2022-10-17T21:58:15.472Z,0
2022-10-17T22:03:22.793Z,0
2022-10-17T22:08:30.123Z,0
2022-10-17T22:13:37.482Z,0
2022-10-17T22:18:44.840Z,0
2022-10-17T22:23:52.201Z,0
2022-10-17T22:28:59.561Z,0
2022-10-17T22:34:06.882Z,0
2022-10-17T22:39:14.478Z,0
2022-10-17T22:44:22.038Z,0
2022-10-17T22:54:37.162Z,0
2022-10-17T22:59:44.744Z,0
2022-10-17T23:04:52.275Z,0
2022-10-17T23:09:59.807Z,0
2022-10-17T23:15:07.313Z,0
2022-10-17T23:20:14.826Z,0
2022-10-17T23:25:22.312Z,0
2022-10-17T23:30:29.820Z,0
2022-10-17T23:35:37.303Z,0
2022-10-17T23:40:44.767Z,0
2022-10-17T23:45:52.931Z,0
2022-10-17T23:50:59.587Z,0
2022-10-17T23:56:06.652Z,0
